Andacollo, Argentina
Current Conditions -  °F | °C
As of 3:00 PM on Wednesday 28 Jan 2015 (Local Time) from SCIC Reporting Station
Clear Clear  
Wind Chill: 28°   Ceiling: Unl
Heat Index: 28°   Visibility: 6mi
Dew Point: 10°   Wind: 8mph
Humidity: 32%   Direction: 250°WSW
Pressure: 29.91"   Gusts: NA
Location:  37.05°S, 70.07°W
Report Text: SCIC 281800Z 25007KT CAVOK 28/10 Q1013
Loading
Personal Weather Stations






























Interactive Weather Map New forecast layout! Learn more

10-Day Weather Forecast

Advertisements
Track Severe Weather on mobile